sensor_id;sensor_type;location;lat;lon;timestamp;pressure;altitude;pressure_sealevel;temperature;humidity
49030;BME280;43337;52.070;4.508;2023-04-12T00:01:05;100477.06;;;7.71;100.00
49030;BME280;43337;52.070;4.508;2023-04-12T00:03:31;100466.53;;;7.72;100.00
49030;BME280;43337;52.070;4.508;2023-04-12T00:06:01;100457.88;;;7.70;100.00
49030;BME280;43337;52.070;4.508;2023-04-12T00:08:28;100452.56;;;7.72;100.00
49030;BME280;43337;52.070;4.508;2023-04-12T00:10:58;100452.56;;;7.72;100.00
49030;BME280;43337;52.070;4.508;2023-04-12T00:13:24;100440.31;;;7.72;100.00
49030;BME280;43337;52.070;4.508;2023-04-12T00:15:50;100445.63;;;7.71;100.00
49030;BME280;43337;52.070;4.508;2023-04-12T00:18:16;100429.97;;;7.69;100.00
49030;BME280;43337;52.070;4.508;2023-04-12T00:20:43;100408.22;;;7.67;100.00
49030;BME280;43337;52.070;4.508;2023-04-12T00:23:09;100415.88;;;7.72;100.00
49030;BME280;43337;52.070;4.508;2023-04-12T00:25:37;100401.09;;;7.71;100.00
49030;BME280;43337;52.070;4.508;2023-04-12T00:28:03;100389.69;;;7.72;100.00
49030;BME280;43337;52.070;4.508;2023-04-12T00:30:30;100371.50;;;7.69;100.00
49030;BME280;43337;52.070;4.508;2023-04-12T00:32:57;100355.63;;;7.72;100.00
49030;BME280;43337;52.070;4.508;2023-04-12T00:35:29;100349.66;;;7.68;100.00
49030;BME280;43337;52.070;4.508;2023-04-12T00:37:59;100351.38;;;7.69;100.00
49030;BME280;43337;52.070;4.508;2023-04-12T00:40:27;100350.69;;;7.64;100.00
49030;BME280;43337;52.070;4.508;2023-04-12T00:42:52;100328.19;;;7.58;100.00
49030;BME280;43337;52.070;4.508;2023-04-12T00:45:17;100345.41;;;7.66;100.00
49030;BME280;43337;52.070;4.508;2023-04-12T00:47:43;100329.59;;;7.67;100.00
49030;BME280;43337;52.070;4.508;2023-04-12T00:50:09;100319.19;;;7.66;100.00
49030;BME280;43337;52.070;4.508;2023-04-12T00:52:35;100321.81;;;7.66;100.00
49030;BME280;43337;52.070;4.508;2023-04-12T00:55:02;100316.50;;;7.67;100.00
49030;BME280;43337;52.070;4.508;2023-04-12T00:57:33;100309.59;;;7.65;100.00
49030;BME280;43337;52.070;4.508;2023-04-12T01:00:01;100296.47;;;7.66;100.00
49030;BME280;43337;52.070;4.508;2023-04-12T01:02:28;100279.28;;;7.59;100.00
49030;BME280;43337;52.070;4.508;2023-04-12T01:04:56;100279.06;;;7.65;100.00
49030;BME280;43337;52.070;4.508;2023-04-12T01:07:39;100260.13;;;7.57;100.00
49030;BME280;43337;52.070;4.508;2023-04-12T01:16:02;100233.25;;;7.53;100.00
49030;BME280;43337;52.070;4.508;2023-04-12T01:18:32;100245.41;;;7.54;100.00
49030;BME280;43337;52.070;4.508;2023-04-12T01:21:08;100221.03;;;7.52;100.00
49030;BME280;43337;52.070;4.508;2023-04-12T01:23:52;100232.25;;;7.56;100.00
49030;BME280;43337;52.070;4.508;2023-04-12T01:26:32;100223.41;;;7.58;100.00
49030;BME280;43337;52.070;4.508;2023-04-12T01:29:00;100201.66;;;7.56;100.00
49030;BME280;43337;52.070;4.508;2023-04-12T01:31:27;100219.94;;;7.58;100.00
49030;BME280;43337;52.070;4.508;2023-04-12T01:33:55;100193.06;;;7.53;100.00
49030;BME280;43337;52.070;4.508;2023-04-12T01:36:21;100188.63;;;7.55;100.00
49030;BME280;43337;52.070;4.508;2023-04-12T01:38:49;100189.41;;;7.57;100.00
49030;BME280;43337;52.070;4.508;2023-04-12T01:41:16;100180.88;;;7.52;100.00
49030;BME280;43337;52.070;4.508;2023-04-12T01:43:44;100161.50;;;7.56;100.00
49030;BME280;43337;52.070;4.508;2023-04-12T01:46:17;100142.00;;;7.43;100.00
49030;BME280;43337;52.070;4.508;2023-04-12T01:48:49;100159.94;;;7.52;100.00
49030;BME280;43337;52.070;4.508;2023-04-12T01:51:26;100159.00;;;7.53;100.00
49030;BME280;43337;52.070;4.508;2023-04-12T01:54:07;100133.00;;;7.48;100.00
49030;BME280;43337;52.070;4.508;2023-04-12T01:56:42;100133.81;;;7.50;100.00
49030;BME280;43337;52.070;4.508;2023-04-12T01:59:10;100135.59;;;7.50;100.00
49030;BME280;43337;52.070;4.508;2023-04-12T02:01:38;100132.38;;;7.43;100.00
49030;BME280;43337;52.070;4.508;2023-04-12T02:04:04;100089.19;;;7.31;100.00
49030;BME280;43337;52.070;4.508;2023-04-12T02:06:31;100117.31;;;7.48;100.00
49030;BME280;43337;52.070;4.508;2023-04-12T02:09:02;100087.03;;;7.41;100.00
49030;BME280;43337;52.070;4.508;2023-04-12T02:11:29;100092.44;;;7.38;100.00
49030;BME280;43337;52.070;4.508;2023-04-12T02:13:55;100111.34;;;7.45;100.00
49030;BME280;43337;52.070;4.508;2023-04-12T02:16:20;100082.84;;;7.37;100.00
49030;BME280;43337;52.070;4.508;2023-04-12T02:18:47;100074.88;;;7.40;100.00
49030;BME280;43337;52.070;4.508;2023-04-12T02:21:13;100093.94;;;7.44;100.00
49030;BME280;43337;52.070;4.508;2023-04-12T02:23:40;100090.50;;;7.42;100.00
49030;BME280;43337;52.070;4.508;2023-04-12T02:26:08;100067.75;;;7.44;100.00
49030;BME280;43337;52.070;4.508;2023-04-12T02:28:34;100054.16;;;7.34;100.00
49030;BME280;43337;52.070;4.508;2023-04-12T02:31:01;100063.63;;;7.38;100.00
49030;BME280;43337;52.070;4.508;2023-04-12T02:33:26;100061.78;;;7.40;100.00
49030;BME280;43337;52.070;4.508;2023-04-12T02:35:53;100011.03;;;7.22;100.00
49030;BME280;43337;52.070;4.508;2023-04-12T02:38:18;100044.38;;;7.39;100.00
49030;BME280;43337;52.070;4.508;2023-04-12T02:40:43;100046.88;;;7.42;100.00
49030;BME280;43337;52.070;4.508;2023-04-12T02:43:09;100039.13;;;7.39;100.00
49030;BME280;43337;52.070;4.508;2023-04-12T02:45:35;100046.78;;;7.44;100.00
49030;BME280;43337;52.070;4.508;2023-04-12T02:48:01;100003.84;;;7.27;100.00
49030;BME280;43337;52.070;4.508;2023-04-12T02:50:27;100003.78;;;7.29;100.00
49030;BME280;43337;52.070;4.508;2023-04-12T02:52:52;100025.13;;;7.40;100.00
49030;BME280;43337;52.070;4.508;2023-04-12T02:55:18;100016.28;;;7.43;100.00
49030;BME280;43337;52.070;4.508;2023-04-12T02:57:44;100018.81;;;7.44;100.00
49030;BME280;43337;52.070;4.508;2023-04-12T03:00:13;100002.41;;;7.41;100.00
49030;BME280;43337;52.070;4.508;2023-04-12T03:02:41;100008.31;;;7.46;100.00
49030;BME280;43337;52.070;4.508;2023-04-12T03:05:07;100000.50;;;7.44;100.00
49030;BME280;43337;52.070;4.508;2023-04-12T03:07:34;99996.91;;;7.47;100.00
49030;BME280;43337;52.070;4.508;2023-04-12T03:10:00;99981.25;;;7.45;100.00
49030;BME280;43337;52.070;4.508;2023-04-12T03:12:25;99979.50;;;7.46;100.00
49030;BME280;43337;52.070;4.508;2023-04-12T03:14:51;99956.59;;;7.30;100.00
49030;BME280;43337;52.070;4.508;2023-04-12T03:17:16;99959.66;;;7.40;100.00
49030;BME280;43337;52.070;4.508;2023-04-12T03:19:41;99961.94;;;7.48;100.00
49030;BME280;43337;52.070;4.508;2023-04-12T03:22:07;99957.63;;;7.47;100.00
49030;BME280;43337;52.070;4.508;2023-04-12T03:24:32;99968.13;;;7.45;100.00
49030;BME280;43337;52.070;4.508;2023-04-12T03:27:03;99954.91;;;7.48;100.00
49030;BME280;43337;52.070;4.508;2023-04-12T03:29:31;99961.94;;;7.48;100.00
49030;BME280;43337;52.070;4.508;2023-04-12T03:31:57;99950.03;;;7.41;100.00
49030;BME280;43337;52.070;4.508;2023-04-12T03:34:24;99947.28;;;7.44;100.00
49030;BME280;43337;52.070;4.508;2023-04-12T03:36:52;99930.50;;;7.48;100.00
49030;BME280;43337;52.070;4.508;2023-04-12T03:39:17;99945.25;;;7.50;100.00
49030;BME280;43337;52.070;4.508;2023-04-12T03:41:43;99936.78;;;7.44;100.00
49030;BME280;43337;52.070;4.508;2023-04-12T03:44:08;99955.59;;;7.53;100.00
49030;BME280;43337;52.070;4.508;2023-04-12T03:46:34;99941.63;;;7.53;100.00
49030;BME280;43337;52.070;4.508;2023-04-12T03:48:59;99915.59;;;7.50;100.00
49030;BME280;43337;52.070;4.508;2023-04-12T03:51:25;99918.00;;;7.54;100.00
49030;BME280;43337;52.070;4.508;2023-04-12T03:53:52;99896.53;;;7.46;100.00
49030;BME280;43337;52.070;4.508;2023-04-12T03:56:18;99886.25;;;7.42;100.00
49030;BME280;43337;52.070;4.508;2023-04-12T03:58:45;99890.88;;;7.55;100.00
49030;BME280;43337;52.070;4.508;2023-04-12T04:01:11;99863.03;;;7.34;100.00
49030;BME280;43337;52.070;4.508;2023-04-12T04:03:38;99899.44;;;7.59;100.00
49030;BME280;43337;52.070;4.508;2023-04-12T04:06:05;99885.84;;;7.51;100.00
49030;BME280;43337;52.070;4.508;2023-04-12T04:08:31;99894.34;;;7.56;100.00
49030;BME280;43337;52.070;4.508;2023-04-12T04:10:57;99888.03;;;7.60;100.00
49030;BME280;43337;52.070;4.508;2023-04-12T04:13:23;99867.78;;;7.45;100.00
49030;BME280;43337;52.070;4.508;2023-04-12T04:15:58;99883.09;;;7.54;100.00
49030;BME280;43337;52.070;4.508;2023-04-12T04:18:25;99884.53;;;7.61;100.00
49030;BME280;43337;52.070;4.508;2023-04-12T04:20:50;99886.22;;;7.62;100.00
49030;BME280;43337;52.070;4.508;2023-04-12T04:23:16;99897.41;;;7.66;100.00
49030;BME280;43337;52.070;4.508;2023-04-12T04:25:41;99901.81;;;7.65;100.00
49030;BME280;43337;52.070;4.508;2023-04-12T04:28:07;99892.03;;;7.69;100.00
49030;BME280;43337;52.070;4.508;2023-04-12T04:30:33;99892.16;;;7.66;100.00
49030;BME280;43337;52.070;4.508;2023-04-12T04:33:03;99901.44;;;7.73;100.00
49030;BME280;43337;52.070;4.508;2023-04-12T04:35:28;99892.66;;;7.74;100.00
49030;BME280;43337;52.070;4.508;2023-04-12T04:37:56;99892.56;;;7.75;100.00
49030;BME280;43337;52.070;4.508;2023-04-12T04:40:22;99896.22;;;7.73;100.00
49030;BME280;43337;52.070;4.508;2023-04-12T04:42:49;99864.91;;;7.51;100.00
49030;BME280;43337;52.070;4.508;2023-04-12T04:45:22;99895.69;;;7.65;100.00
49030;BME280;43337;52.070;4.508;2023-04-12T04:47:54;99911.13;;;7.71;100.00
49030;BME280;43337;52.070;4.508;2023-04-12T04:50:21;99906.59;;;7.74;100.00
49030;BME280;43337;52.070;4.508;2023-04-12T04:52:48;99907.53;;;7.73;100.00
49030;BME280;43337;52.070;4.508;2023-04-12T04:55:13;99903.78;;;7.79;100.00
49030;BME280;43337;52.070;4.508;2023-04-12T04:57:39;99906.25;;;7.82;100.00
49030;BME280;43337;52.070;4.508;2023-04-12T05:00:06;99893.28;;;7.79;100.00
49030;BME280;43337;52.070;4.508;2023-04-12T05:02:36;99906.34;;;7.80;100.00
49030;BME280;43337;52.070;4.508;2023-04-12T05:05:07;99884.66;;;7.77;100.00
49030;BME280;43337;52.070;4.508;2023-04-12T05:07:33;99892.00;;;7.88;100.00
49030;BME280;43337;52.070;4.508;2023-04-12T05:09:58;99896.13;;;7.93;100.00
49030;BME280;43337;52.070;4.508;2023-04-12T05:12:23;99864.69;;;7.74;100.00
49030;BME280;43337;52.070;4.508;2023-04-12T05:14:49;99902.94;;;7.97;100.00
49030;BME280;43337;52.070;4.508;2023-04-12T05:17:15;99872.91;;;7.86;100.00
49030;BME280;43337;52.070;4.508;2023-04-12T05:19:40;99857.44;;;7.79;100.00
49030;BME280;43337;52.070;4.508;2023-04-12T05:22:07;99891.22;;;8.04;100.00
49030;BME280;43337;52.070;4.508;2023-04-12T05:24:33;99884.22;;;8.05;100.00
49030;BME280;43337;52.070;4.508;2023-04-12T05:26:58;99868.84;;;7.97;100.00
49030;BME280;43337;52.070;4.508;2023-04-12T05:29:23;99880.66;;;8.06;100.00
49030;BME280;43337;52.070;4.508;2023-04-12T05:31:49;99885.78;;;8.09;100.00
49030;BME280;43337;52.070;4.508;2023-04-12T05:34:14;99895.28;;;8.12;100.00
49030;BME280;43337;52.070;4.508;2023-04-12T05:36:39;99884.63;;;8.15;100.00
49030;BME280;43337;52.070;4.508;2023-04-12T05:39:05;99877.19;;;8.05;100.00
49030;BME280;43337;52.070;4.508;2023-04-12T05:41:30;99885.78;;;8.09;100.00
49030;BME280;43337;52.070;4.508;2023-04-12T05:43:55;99878.00;;;8.07;100.00
49030;BME280;43337;52.070;4.508;2023-04-12T05:46:21;99899.44;;;8.16;100.00
49030;BME280;43337;52.070;4.508;2023-04-12T05:48:47;99908.06;;;8.18;100.00
49030;BME280;43337;52.070;4.508;2023-04-12T05:51:12;99899.34;;;8.17;100.00
49030;BME280;43337;52.070;4.508;2023-04-12T05:53:37;99880.63;;;8.07;100.00
49030;BME280;43337;52.070;4.508;2023-04-12T05:56:03;99889.84;;;8.15;100.00
49030;BME280;43337;52.070;4.508;2023-04-12T05:58:28;99885.69;;;8.11;100.00
49030;BME280;43337;52.070;4.508;2023-04-12T06:00:54;99899.22;;;8.20;100.00
49030;BME280;43337;52.070;4.508;2023-04-12T06:03:22;99903.75;;;8.17;100.00
49030;BME280;43337;52.070;4.508;2023-04-12T06:05:48;99902.69;;;8.21;100.00
49030;BME280;43337;52.070;4.508;2023-04-12T06:08:13;99895.28;;;8.12;100.00
49030;BME280;43337;52.070;4.508;2023-04-12T06:10:39;99888.81;;;8.19;100.00
49030;BME280;43337;52.070;4.508;2023-04-12T06:13:04;99853.13;;;7.97;100.00
49030;BME280;43337;52.070;4.508;2023-04-12T06:15:30;99883.00;;;8.12;100.00
49030;BME280;43337;52.070;4.508;2023-04-12T06:17:56;99892.34;;;8.18;100.00
49030;BME280;43337;52.070;4.508;2023-04-12T06:20:23;99899.44;;;8.16;100.00
49030;BME280;43337;52.070;4.508;2023-04-12T06:22:49;99894.34;;;8.13;100.00
49030;BME280;43337;52.070;4.508;2023-04-12T06:25:14;99905.41;;;8.19;100.00
49030;BME280;43337;52.070;4.508;2023-04-12T06:27:40;99914.09;;;8.20;100.00
49030;BME280;43337;52.070;4.508;2023-04-12T06:30:07;99879.25;;;7.99;100.00
49030;BME280;43337;52.070;4.508;2023-04-12T06:32:32;99911.63;;;8.17;100.00
49030;BME280;43337;52.070;4.508;2023-04-12T06:34:58;99872.94;;;8.03;100.00
49030;BME280;43337;52.070;4.508;2023-04-12T06:37:23;99894.13;;;8.17;100.00
49030;BME280;43337;52.070;4.508;2023-04-12T06:39:48;99906.25;;;8.20;100.00
49030;BME280;43337;52.070;4.508;2023-04-12T06:42:14;99893.50;;;8.12;100.00
49030;BME280;43337;52.070;4.508;2023-04-12T06:44:39;99867.91;;;7.98;100.00
49030;BME280;43337;52.070;4.508;2023-04-12T06:47:05;99904.38;;;8.22;100.00
49030;BME280;43337;52.070;4.508;2023-04-12T06:49:30;99885.50;;;8.15;100.00
49030;BME280;43337;52.070;4.508;2023-04-12T06:51:56;99873.38;;;8.13;100.00
49030;BME280;43337;52.070;4.508;2023-04-12T06:54:21;99898.44;;;8.18;100.00
49030;BME280;43337;52.070;4.508;2023-04-12T06:56:48;99875.28;;;8.09;100.00
49030;BME280;43337;52.070;4.508;2023-04-12T06:59:13;99872.75;;;8.07;100.00
49030;BME280;43337;52.070;4.508;2023-04-12T07:01:38;99887.19;;;8.16;100.00
49030;BME280;43337;52.070;4.508;2023-04-12T07:04:04;99893.84;;;8.23;100.00
49030;BME280;43337;52.070;4.508;2023-04-12T07:06:29;99885.97;;;8.23;100.00
49030;BME280;43337;52.070;4.508;2023-04-12T07:08:55;99894.53;;;8.27;100.00
49030;BME280;43337;52.070;4.508;2023-04-12T07:11:21;99906.00;;;8.24;100.00
49030;BME280;43337;52.070;4.508;2023-04-12T07:13:48;99902.47;;;8.25;100.00
49030;BME280;43337;52.070;4.508;2023-04-12T07:16:13;99891.25;;;8.22;100.00
49030;BME280;43337;52.070;4.508;2023-04-12T07:18:38;99883.63;;;8.17;100.00
49030;BME280;43337;52.070;4.508;2023-04-12T07:21:05;99865.59;;;8.11;100.00
49030;BME280;43337;52.070;4.508;2023-04-12T07:23:30;99895.28;;;8.29;100.00
49030;BME280;43337;52.070;4.508;2023-04-12T07:25:59;99881.63;;;8.41;100.00
49030;BME280;43337;52.070;4.508;2023-04-12T07:28:26;99879.09;;;8.57;100.00
49030;BME280;43337;52.070;4.508;2023-04-12T07:30:51;99856.56;;;8.70;100.00
49030;BME280;43337;52.070;4.508;2023-04-12T07:33:16;99852.47;;;8.82;100.00
49030;BME280;43337;52.070;4.508;2023-04-12T07:35:42;99870.28;;;9.10;100.00
49030;BME280;43337;52.070;4.508;2023-04-12T07:38:07;99857.97;;;9.11;100.00
49030;BME280;43337;52.070;4.508;2023-04-12T07:40:32;99871.94;;;9.28;100.00
49030;BME280;43337;52.070;4.508;2023-04-12T07:42:58;99827.25;;;9.13;100.00
49030;BME280;43337;52.070;4.508;2023-04-12T07:45:23;99829.56;;;9.19;100.00
49030;BME280;43337;52.070;4.508;2023-04-12T07:47:49;99860.69;;;9.26;100.00
49030;BME280;43337;52.070;4.508;2023-04-12T07:50:15;99858.97;;;9.25;100.00
49030;BME280;43337;52.070;4.508;2023-04-12T07:52:40;99851.66;;;9.15;100.00
49030;BME280;43337;52.070;4.508;2023-04-12T07:55:06;99864.25;;;9.08;100.00
49030;BME280;43337;52.070;4.508;2023-04-12T07:57:31;99854.16;;;9.00;100.00
49030;BME280;43337;52.070;4.508;2023-04-12T07:59:57;99831.22;;;8.87;100.00
49030;BME280;43337;52.070;4.508;2023-04-12T08:02:22;99832.16;;;8.86;100.00
49030;BME280;43337;52.070;4.508;2023-04-12T08:04:51;99869.66;;;9.05;100.00
49030;BME280;43337;52.070;4.508;2023-04-12T08:07:17;99852.78;;;8.93;100.00
49030;BME280;43337;52.070;4.508;2023-04-12T08:09:42;99836.63;;;8.84;100.00
49030;BME280;43337;52.070;4.508;2023-04-12T08:12:08;99869.56;;;9.07;100.00
49030;BME280;43337;52.070;4.508;2023-04-12T08:14:33;99869.50;;;9.08;100.00
49030;BME280;43337;52.070;4.508;2023-04-12T08:16:58;99851.28;;;9.05;100.00
49030;BME280;43337;52.070;4.508;2023-04-12T08:19:24;99871.66;;;9.17;100.00
49030;BME280;43337;52.070;4.508;2023-04-12T08:21:50;99863.78;;;9.17;100.00
49030;BME280;43337;52.070;4.508;2023-04-12T08:24:15;99877.44;;;9.24;100.00
49030;BME280;43337;52.070;4.508;2023-04-12T08:26:41;99870.25;;;9.27;100.00
49030;BME280;43337;52.070;4.508;2023-04-12T08:29:06;99867.81;;;9.40;100.00
49030;BME280;43337;52.070;4.508;2023-04-12T08:31:32;99858.59;;;9.49;100.00
49030;BME280;43337;52.070;4.508;2023-04-12T08:33:57;99858.84;;;9.60;100.00
49030;BME280;43337;52.070;4.508;2023-04-12T08:36:24;99873.72;;;9.77;100.00
49030;BME280;43337;52.070;4.508;2023-04-12T08:38:51;99869.06;;;9.82;100.00
49030;BME280;43337;52.070;4.508;2023-04-12T08:41:19;99865.31;;;9.86;100.00
49030;BME280;43337;52.070;4.508;2023-04-12T08:43:45;99843.44;;;9.86;100.00
49030;BME280;43337;52.070;4.508;2023-04-12T08:46:12;99858.38;;;10.01;100.00
49030;BME280;43337;52.070;4.508;2023-04-12T08:48:40;99861.69;;;10.05;100.00
49030;BME280;43337;52.070;4.508;2023-04-12T08:51:08;99857.25;;;10.05;100.00
49030;BME280;43337;52.070;4.508;2023-04-12T08:53:35;99837.25;;;10.02;100.00
49030;BME280;43337;52.070;4.508;2023-04-12T08:56:01;99848.16;;;10.11;100.00
49030;BME280;43337;52.070;4.508;2023-04-12T08:58:27;99856.94;;;10.11;100.00
49030;BME280;43337;52.070;4.508;2023-04-12T09:00:53;99851.84;;;10.08;100.00
49030;BME280;43337;52.070;4.508;2023-04-12T09:03:19;99836.31;;;10.03;100.00
49030;BME280;43337;52.070;4.508;2023-04-12T09:05:44;99834.53;;;10.04;100.00
49030;BME280;43337;52.070;4.508;2023-04-12T09:08:10;99852.59;;;10.10;100.00
49030;BME280;43337;52.070;4.508;2023-04-12T09:10:37;99854.97;;;10.15;100.00
49030;BME280;43337;52.070;4.508;2023-04-12T09:13:03;99859.88;;;10.21;100.00
49030;BME280;43337;52.070;4.508;2023-04-12T09:15:29;99853.88;;;10.19;100.00
49030;BME280;43337;52.070;4.508;2023-04-12T09:18:06;99875.00;;;10.33;100.00
49030;BME280;43337;52.070;4.508;2023-04-12T09:20:32;99870.66;;;10.32;100.00
49030;BME280;43337;52.070;4.508;2023-04-12T09:22:57;99864.22;;;10.38;100.00
49030;BME280;43337;52.070;4.508;2023-04-12T09:25:43;99870.63;;;10.48;100.00
49030;BME280;43337;52.070;4.508;2023-04-12T09:28:22;99865.78;;;10.56;100.00
49030;BME280;43337;52.070;4.508;2023-04-12T09:30:48;99852.44;;;10.59;100.00
49030;BME280;43337;52.070;4.508;2023-04-12T09:33:17;99858.38;;;10.63;100.00
49030;BME280;43337;52.070;4.508;2023-04-12T09:35:43;99866.28;;;10.63;100.00
49030;BME280;43337;52.070;4.508;2023-04-12T09:38:09;99869.00;;;10.61;100.00
49030;BME280;43337;52.070;4.508;2023-04-12T09:40:35;99860.25;;;10.61;100.00
49030;BME280;43337;52.070;4.508;2023-04-12T09:43:02;99851.69;;;10.57;100.00
49030;BME280;43337;52.070;4.508;2023-04-12T09:45:28;99860.00;;;10.65;100.00
49030;BME280;43337;52.070;4.508;2023-04-12T09:47:56;99857.38;;;10.65;100.00
49030;BME280;43337;52.070;4.508;2023-04-12T09:50:26;99859.16;;;10.65;100.00
49030;BME280;43337;52.070;4.508;2023-04-12T09:52:53;99849.72;;;10.61;100.00
49030;BME280;43337;52.070;4.508;2023-04-12T09:55:21;99863.19;;;10.70;100.00
49030;BME280;43337;52.070;4.508;2023-04-12T09:57:49;99854.94;;;10.77;100.00
49030;BME280;43337;52.070;4.508;2023-04-12T10:00:16;99858.63;;;10.88;100.00
49030;BME280;43337;52.070;4.508;2023-04-12T10:02:44;99853.47;;;11.01;100.00
49030;BME280;43337;52.070;4.508;2023-04-12T10:05:20;99866.28;;;11.07;100.00
49030;BME280;43337;52.070;4.508;2023-04-12T10:07:47;99844.25;;;10.94;100.00
49030;BME280;43337;52.070;4.508;2023-04-12T10:10:14;99863.44;;;11.10;100.00
49030;BME280;43337;52.070;4.508;2023-04-12T10:12:41;99843.63;;;11.19;100.00
49030;BME280;43337;52.070;4.508;2023-04-12T10:15:09;99860.25;;;11.34;100.00
49030;BME280;43337;52.070;4.508;2023-04-12T10:17:44;99859.16;;;11.38;100.00
49030;BME280;43337;52.070;4.508;2023-04-12T10:20:11;99855.84;;;11.48;100.00
49030;BME280;43337;52.070;4.508;2023-04-12T10:22:47;99849.53;;;11.65;100.00
49030;BME280;43337;52.070;4.508;2023-04-12T10:25:15;99849.91;;;11.88;100.00
49030;BME280;43337;52.070;4.508;2023-04-12T10:27:43;99839.91;;;11.93;100.00
49030;BME280;43337;52.070;4.508;2023-04-12T10:30:26;99845.97;;;12.08;100.00
49030;BME280;43337;52.070;4.508;2023-04-12T10:33:12;99835.00;;;12.14;100.00
49030;BME280;43337;52.070;4.508;2023-04-12T10:35:49;99849.31;;;12.24;100.00
49030;BME280;43337;52.070;4.508;2023-04-12T10:38:16;99852.59;;;12.28;100.00
49030;BME280;43337;52.070;4.508;2023-04-12T10:43:36;99854.97;;;12.18;100.00
49030;BME280;43337;52.070;4.508;2023-04-12T10:46:02;99856.84;;;12.03;100.00
49030;BME280;43337;52.070;4.508;2023-04-12T10:48:37;99845.66;;;11.85;100.00
49030;BME280;43337;52.070;4.508;2023-04-12T10:51:15;99857.53;;;11.92;100.00
49030;BME280;43337;52.070;4.508;2023-04-12T10:56:45;99857.94;;;11.99;100.00
49030;BME280;43337;52.070;4.508;2023-04-12T10:59:15;99871.41;;;12.09;100.00
49030;BME280;43337;52.070;4.508;2023-04-12T11:01:42;99865.09;;;12.11;100.00
49030;BME280;43337;52.070;4.508;2023-04-12T11:04:26;99861.31;;;12.15;100.00
49030;BME280;43337;52.070;4.508;2023-04-12T11:09:25;99876.16;;;12.31;99.54
49030;BME280;43337;52.070;4.508;2023-04-12T11:12:09;99877.00;;;12.31;86.47
49030;BME280;43337;52.070;4.508;2023-04-12T11:14:42;99868.53;;;12.26;97.87
49030;BME280;43337;52.070;4.508;2023-04-12T11:19:35;99870.06;;;12.16;96.33
49030;BME280;43337;52.070;4.508;2023-04-12T11:22:05;99867.53;;;12.14;97.96
49030;BME280;43337;52.070;4.508;2023-04-12T11:24:31;99871.03;;;12.15;90.78
49030;BME280;43337;52.070;4.508;2023-04-12T11:26:57;99873.84;;;12.12;90.79
49030;BME280;43337;52.070;4.508;2023-04-12T11:29:26;99880.22;;;12.22;88.60
49030;BME280;43337;52.070;4.508;2023-04-12T11:31:51;99874.94;;;12.22;89.59
49030;BME280;43337;52.070;4.508;2023-04-12T11:34:18;99883.72;;;12.23;89.35
49030;BME280;43337;52.070;4.508;2023-04-12T11:36:50;99882.31;;;12.17;83.70
49030;BME280;43337;52.070;4.508;2023-04-12T11:39:16;99885.31;;;12.25;84.61
49030;BME280;43337;52.070;4.508;2023-04-12T11:41:48;99877.50;;;12.24;82.31
49030;BME280;43337;52.070;4.508;2023-04-12T11:44:15;99882.38;;;12.30;83.97
49030;BME280;43337;52.070;4.508;2023-04-12T11:46:46;99893.28;;;12.38;82.45
49030;BME280;43337;52.070;4.508;2023-04-12T11:49:19;99885.66;;;12.33;64.31
49030;BME280;43337;52.070;4.508;2023-04-12T11:51:45;99873.41;;;12.32;76.55
49030;BME280;43337;52.070;4.508;2023-04-12T11:54:12;99887.88;;;12.27;73.48
49030;BME280;43337;52.070;4.508;2023-04-12T11:56:38;99881.59;;;12.15;71.93
49030;BME280;43337;52.070;4.508;2023-04-12T11:59:04;99869.25;;;12.01;71.52
49030;BME280;43337;52.070;4.508;2023-04-12T12:01:30;99886.72;;;11.89;71.85
49030;BME280;43337;52.070;4.508;2023-04-12T12:03:58;99888.50;;;11.74;70.91
49030;BME280;43337;52.070;4.508;2023-04-12T12:06:24;99892.84;;;11.61;73.91
49030;BME280;43337;52.070;4.508;2023-04-12T12:08:51;99898.97;;;11.47;73.27
49030;BME280;43337;52.070;4.508;2023-04-12T12:11:18;99912.97;;;11.34;72.93
49030;BME280;43337;52.070;4.508;2023-04-12T12:13:49;99905.97;;;11.18;71.12
49030;BME280;43337;52.070;4.508;2023-04-12T12:16:15;99892.22;;;10.99;73.30
49030;BME280;43337;52.070;4.508;2023-04-12T12:18:42;99907.28;;;10.97;73.48
49030;BME280;43337;52.070;4.508;2023-04-12T12:21:08;99897.28;;;10.88;77.15
49030;BME280;43337;52.070;4.508;2023-04-12T12:23:34;99912.81;;;10.92;79.08
49030;BME280;43337;52.070;4.508;2023-04-12T12:26:03;99911.03;;;10.93;79.74
49030;BME280;43337;52.070;4.508;2023-04-12T12:28:29;99887.59;;;10.88;81.21
49030;BME280;43337;52.070;4.508;2023-04-12T12:30:58;99887.41;;;10.91;83.11
49030;BME280;43337;52.070;4.508;2023-04-12T12:33:23;99889.13;;;11.07;83.62
49030;BME280;43337;52.070;4.508;2023-04-12T12:35:56;99869.47;;;11.12;83.89
49030;BME280;43337;52.070;4.508;2023-04-12T12:38:22;99888.50;;;11.32;85.11
49030;BME280;43337;52.070;4.508;2023-04-12T12:40:48;99879.94;;;11.28;85.80
49030;BME280;43337;52.070;4.508;2023-04-12T12:43:18;99885.50;;;11.52;86.38
49030;BME280;43337;52.070;4.508;2023-04-12T12:45:44;99896.81;;;11.68;86.08
49030;BME280;43337;52.070;4.508;2023-04-12T12:48:09;99898.19;;;11.74;86.83
49030;BME280;43337;52.070;4.508;2023-04-12T12:50:35;99893.59;;;11.78;87.52
49030;BME280;43337;52.070;4.508;2023-04-12T12:53:02;99892.28;;;11.85;88.86
49030;BME280;43337;52.070;4.508;2023-04-12T12:55:29;99893.22;;;11.84;88.10
49030;BME280;43337;52.070;4.508;2023-04-12T12:57:56;99887.88;;;11.85;89.79
49030;BME280;43337;52.070;4.508;2023-04-12T13:00:23;99879.94;;;11.85;92.62
49030;BME280;43337;52.070;4.508;2023-04-12T13:02:49;99878.78;;;12.04;92.97
49030;BME280;43337;52.070;4.508;2023-04-12T13:05:16;99874.25;;;12.06;94.23
49030;BME280;43337;52.070;4.508;2023-04-12T13:07:41;99878.06;;;12.14;94.19
49030;BME280;43337;52.070;4.508;2023-04-12T13:10:08;99871.41;;;12.09;93.48
49030;BME280;43337;52.070;4.508;2023-04-12T13:12:34;99887.59;;;12.17;95.26